createdAt,value
2022-11-25T00:02:53.374Z,97821.19
2022-11-25T00:07:54.910Z,97823.09
2022-11-25T00:12:56.418Z,97818.34
2022-11-25T00:17:57.776Z,97819.19
2022-11-25T00:22:59.166Z,97820.38
2022-11-25T00:28:00.541Z,97819.38
2022-11-25T00:33:01.931Z,97821.00
2022-11-25T00:38:03.384Z,97816.34
2022-11-25T00:43:25.480Z,97819.69
2022-11-25T00:48:26.915Z,97823.84
2022-11-25T00:53:31.078Z,97817.50
2022-11-25T00:58:32.439Z,97816.28
2022-11-25T01:03:34.974Z,97824.81
2022-11-25T01:08:37.996Z,97816.16
2022-11-25T01:13:39.830Z,97815.75
2022-11-25T01:18:41.956Z,97818.66
2022-11-25T01:23:43.527Z,97820.16
2022-11-25T01:28:49.336Z,97823.09
2022-11-25T01:33:55.732Z,97819.31
2022-11-25T01:38:59.169Z,97813.25
2022-11-25T01:44:03.599Z,97822.59
2022-11-25T01:49:10.341Z,97814.69
2022-11-25T01:54:16.000Z,97812.72
2022-11-25T01:59:18.019Z,97814.19
2022-11-25T02:04:22.143Z,97823.53
2022-11-25T02:09:23.590Z,97810.91
2022-11-25T02:14:26.250Z,97817.03
2022-11-25T02:19:49.698Z,97824.03
2022-11-25T02:24:57.760Z,97810.59
2022-11-25T02:29:59.274Z,97811.09
2022-11-25T02:35:00.691Z,97811.03
2022-11-25T02:40:02.955Z,97816.66
2022-11-25T02:45:05.703Z,97809.38
2022-11-25T02:50:07.731Z,97815.53
2022-11-25T02:55:09.338Z,97809.72
2022-11-25T03:00:11.413Z,97817.50
2022-11-25T03:05:14.383Z,97811.69
2022-11-25T03:10:15.802Z,97815.34
2022-11-25T03:15:18.126Z,97815.00
2022-11-25T03:20:20.265Z,97823.66
2022-11-25T03:25:22.326Z,97820.00
2022-11-25T03:30:27.483Z,97824.81
2022-11-25T03:35:32.859Z,97826.50
2022-11-25T03:40:34.336Z,97832.63
2022-11-25T03:45:35.796Z,97828.00
2022-11-25T03:50:42.118Z,97834.13
2022-11-25T03:55:44.032Z,97832.47
2022-11-25T04:00:45.633Z,97832.94
2022-11-25T04:05:47.179Z,97834.59
2022-11-25T04:10:51.822Z,97837.56
2022-11-25T04:15:57.859Z,97838.50
2022-11-25T04:21:00.323Z,97848.56
2022-11-25T04:26:02.402Z,97843.13
2022-11-25T04:31:14.057Z,97845.16
2022-11-25T04:36:17.805Z,97856.59
2022-11-25T04:41:19.482Z,97846.78
2022-11-25T04:46:34.065Z,97843.03
2022-11-25T04:51:35.648Z,97856.19
2022-11-25T04:56:40.843Z,97854.09
2022-11-25T05:01:42.928Z,97847.06
2022-11-25T05:07:10.942Z,97840.75
2022-11-25T05:12:19.290Z,97839.31
2022-11-25T05:17:23.990Z,97833.09
2022-11-25T05:22:29.971Z,97837.13
2022-11-25T05:27:31.407Z,97835.63
2022-11-25T05:32:37.833Z,97837.69
2022-11-25T05:37:43.913Z,97842.88
2022-11-25T05:42:45.790Z,97834.47
2022-11-25T05:47:47.294Z,97841.16
2022-11-25T05:52:53.702Z,97835.88
2022-11-25T05:57:55.571Z,97847.03
2022-11-25T06:02:57.055Z,97846.50
2022-11-25T06:07:58.656Z,97850.56
2022-11-25T06:13:01.473Z,97850.25
2022-11-25T06:18:03.314Z,97858.91
2022-11-25T06:23:07.638Z,97865.63
2022-11-25T06:28:13.125Z,97863.47
2022-11-25T06:33:18.260Z,97869.59
2022-11-25T06:38:21.456Z,97882.22
2022-11-25T06:43:22.819Z,97880.44
2022-11-25T06:48:24.210Z,97880.81
2022-11-25T06:53:26.575Z,97870.25
2022-11-25T06:58:35.894Z,97879.59
2022-11-25T07:03:38.114Z,97890.84
2022-11-25T07:08:40.416Z,97888.75
2022-11-25T07:13:41.805Z,97901.41
2022-11-25T07:18:43.236Z,97905.88
2022-11-25T07:23:46.604Z,97909.50
2022-11-25T07:28:49.330Z,97916.59
2022-11-25T07:34:02.233Z,97913.38
2022-11-25T07:39:07.699Z,97915.59
2022-11-25T07:44:12.892Z,97912.81
2022-11-25T07:49:27.067Z,97921.28
2022-11-25T07:54:28.874Z,97913.75
2022-11-25T07:59:30.309Z,97913.06
2022-11-25T08:04:31.672Z,97909.69
2022-11-25T08:09:33.115Z,97914.38
2022-11-25T08:14:35.243Z,97913.63
2022-11-25T08:19:37.177Z,97908.53
2022-11-25T08:24:38.742Z,97909.31
2022-11-25T08:29:40.171Z,97923.56
2022-11-25T08:34:42.457Z,97924.88
2022-11-25T08:39:53.750Z,97928.03
2022-11-25T08:44:56.240Z,97925.00
2022-11-25T08:49:57.710Z,97931.44
2022-11-25T08:54:59.143Z,97928.94
2022-11-25T09:00:00.692Z,97922.09
2022-11-25T09:05:02.091Z,97925.50
2022-11-25T09:10:04.236Z,97933.34
2022-11-25T09:15:06.234Z,97921.66
2022-11-25T09:20:07.915Z,97919.56
2022-11-25T09:25:09.487Z,97925.44
2022-11-25T09:30:11.397Z,97927.69
2022-11-25T09:35:12.849Z,97927.25
2022-11-25T09:40:56.129Z,97917.88
2022-11-25T09:46:35.058Z,97928.03
2022-11-25T09:52:19.319Z,97930.41
2022-11-25T09:57:39.500Z,97937.25
2022-11-25T10:02:50.932Z,97942.41
2022-11-25T10:08:12.710Z,97933.31
2022-11-25T10:13:25.331Z,97929.53
2022-11-25T10:18:55.976Z,97929.91
2022-11-25T10:23:57.727Z,97941.22
2022-11-25T10:29:14.061Z,97933.25
2022-11-25T10:34:29.933Z,97938.75
2022-11-25T10:39:34.383Z,97931.22
2022-11-25T10:44:38.661Z,97927.91
2022-11-25T10:49:46.041Z,97926.56
2022-11-25T10:55:12.966Z,97928.03
2022-11-25T11:00:34.586Z,97922.66
2022-11-25T11:05:47.843Z,97906.78
2022-11-25T11:11:22.494Z,97913.53
2022-11-25T11:16:36.571Z,97918.34
2022-11-25T11:21:41.673Z,97913.28
2022-11-25T11:26:43.200Z,97901.78
2022-11-25T11:31:48.435Z,97901.56
2022-11-25T11:36:49.863Z,97895.19
2022-11-25T11:42:08.408Z,97894.94
2022-11-25T11:47:37.735Z,97903.06
2022-11-25T11:53:00.420Z,97904.91
2022-11-25T11:58:01.736Z,97898.41
2022-11-25T12:03:10.589Z,97899.22
2022-11-25T12:08:23.216Z,97895.88
2022-11-25T12:13:37.565Z,97896.81
2022-11-25T12:18:43.958Z,97888.59
2022-11-25T12:23:56.011Z,97887.03
2022-11-25T12:29:09.144Z,97887.44
2022-11-25T12:34:52.723Z,97879.38
2022-11-25T12:40:13.090Z,97879.03
2022-11-25T12:45:23.652Z,97882.81
2022-11-25T12:50:53.390Z,97871.56
2022-11-25T12:55:59.603Z,97875.63
2022-11-25T13:01:39.059Z,97886.06
2022-11-25T13:06:59.483Z,97893.50
2022-11-25T13:12:20.039Z,97897.28
2022-11-25T13:17:23.390Z,97905.88
2022-11-25T13:22:29.854Z,97910.81
2022-11-25T13:27:32.467Z,97904.28
2022-11-25T13:32:40.212Z,97914.53
2022-11-25T13:37:41.901Z,97911.56
2022-11-25T13:42:44.495Z,97910.72
2022-11-25T13:47:49.226Z,97911.81
2022-11-25T13:53:06.707Z,97923.78
2022-11-25T13:58:10.846Z,97920.69
2022-11-25T14:03:18.374Z,97925.72
2022-11-25T14:08:39.216Z,97919.81
2022-11-25T14:14:06.931Z,97927.25
2022-11-25T14:19:51.248Z,97937.97
2022-11-25T14:25:00.543Z,97939.03
2022-11-25T14:30:07.437Z,97946.75
2022-11-25T14:35:14.538Z,97956.28
2022-11-25T14:40:42.058Z,97959.66
2022-11-25T14:45:43.464Z,97967.69
2022-11-25T14:51:15.255Z,97972.88
2022-11-25T14:56:27.291Z,97984.56
2022-11-25T15:01:33.707Z,97983.94
2022-11-25T15:06:37.280Z,97985.31
2022-11-25T15:11:38.867Z,97985.03
2022-11-25T15:16:43.301Z,97989.34
2022-11-25T15:22:14.981Z,97993.38
2022-11-25T15:27:21.918Z,97997.03
2022-11-25T15:32:32.484Z,98003.88
2022-11-25T15:37:33.893Z,98025.50
2022-11-25T15:42:35.371Z,98021.00
2022-11-25T15:47:36.928Z,98019.69
2022-11-25T15:52:40.946Z,98014.72
2022-11-25T15:57:42.586Z,98031.34
2022-11-25T16:02:44.001Z,98035.69
2022-11-25T16:07:51.930Z,98038.50
2022-11-25T16:13:25.810Z,98041.66
2022-11-25T16:19:02.701Z,98047.81
2022-11-25T16:24:30.151Z,98044.97
2022-11-25T16:29:31.471Z,98052.00
2022-11-25T16:34:32.850Z,98050.31
2022-11-25T16:39:34.302Z,98050.31
2022-11-25T16:44:37.127Z,98055.97
2022-11-25T16:49:39.172Z,98062.81
2022-11-25T16:54:41.698Z,98064.81
2022-11-25T16:59:45.424Z,98064.63
2022-11-25T17:04:47.885Z,98061.63
2022-11-25T17:09:49.574Z,98068.28
2022-11-25T17:14:51.184Z,98074.78
2022-11-25T17:19:53.667Z,98079.41
2022-11-25T17:24:57.292Z,98081.59
2022-11-25T17:30:01.176Z,98073.09
2022-11-25T17:35:02.605Z,98086.59
2022-11-25T17:40:04.440Z,98095.53
2022-11-25T17:45:18.620Z,98098.88
2022-11-25T17:50:25.434Z,98089.25
2022-11-25T17:55:27.188Z,98098.38
2022-11-25T18:00:28.834Z,98103.53
2022-11-25T18:05:30.225Z,98103.34
2022-11-25T18:10:31.860Z,98110.66
2022-11-25T18:15:34.604Z,98121.78
2022-11-25T18:20:35.983Z,98125.97
2022-11-25T18:25:39.441Z,98133.94
2022-11-25T18:31:19.089Z,98134.41
2022-11-25T18:36:52.529Z,98132.25
2022-11-25T18:41:58.206Z,98141.03
2022-11-25T18:47:38.221Z,98141.66
2022-11-25T18:52:39.637Z,98157.44
2022-11-25T18:58:08.447Z,98154.75
2022-11-25T19:10:48.593Z,98168.31
2022-11-25T19:15:50.171Z,98182.44
2022-11-25T19:28:12.161Z,98193.38
2022-11-25T19:33:36.714Z,98190.72
2022-11-25T19:39:15.102Z,98201.69
2022-11-25T19:44:16.631Z,98214.84
2022-11-25T19:49:19.797Z,98215.66
2022-11-25T19:54:21.177Z,98223.78
2022-11-25T19:59:22.615Z,98234.91
2022-11-25T20:04:24.059Z,98229.38
2022-11-25T20:09:25.541Z,98233.53
2022-11-25T20:14:26.939Z,98241.03
2022-11-25T20:19:28.381Z,98248.69
2022-11-25T20:24:30.034Z,98255.53
2022-11-25T20:29:31.414Z,98264.50
2022-11-25T20:34:37.386Z,98270.13
2022-11-25T20:39:44.654Z,98273.75
2022-11-25T20:44:46.688Z,98280.38
2022-11-25T20:49:48.727Z,98287.16
2022-11-25T20:54:50.137Z,98297.47
2022-11-25T20:59:51.562Z,98305.31
2022-11-25T21:04:53.027Z,98305.94
2022-11-25T21:09:54.757Z,98311.25
2022-11-25T21:14:56.181Z,98319.03
2022-11-25T21:19:57.552Z,98323.22
2022-11-25T21:24:59.279Z,98324.63
2022-11-25T21:30:00.666Z,98331.69
2022-11-25T21:35:03.868Z,98343.94
2022-11-25T21:40:06.157Z,98343.19
2022-11-25T21:45:15.902Z,98348.09
2022-11-25T21:50:18.730Z,98352.88
2022-11-25T21:55:20.135Z,98360.00
2022-11-25T22:00:24.703Z,98366.03
2022-11-25T22:05:26.100Z,98371.47
2022-11-25T22:10:27.565Z,98374.03
2022-11-25T22:15:29.072Z,98382.59
2022-11-25T22:20:33.348Z,98386.69
2022-11-25T22:25:34.746Z,98398.28
2022-11-25T22:30:36.120Z,98404.47
2022-11-25T22:35:37.515Z,98409.19
2022-11-25T22:40:39.035Z,98406.53
2022-11-25T22:45:40.455Z,98421.50
2022-11-25T22:50:43.699Z,98415.22
2022-11-25T22:55:45.831Z,98430.03
2022-11-25T23:00:47.589Z,98435.75
2022-11-25T23:05:51.159Z,98440.69
2022-11-25T23:10:53.606Z,98438.03
2022-11-25T23:15:59.074Z,98439.94
2022-11-25T23:21:00.738Z,98449.44
2022-11-25T23:26:02.122Z,98455.56
2022-11-25T23:31:04.266Z,98453.38
2022-11-25T23:36:12.580Z,98456.63
2022-11-25T23:41:16.944Z,98452.03
2022-11-25T23:46:22.701Z,98455.94
2022-11-25T23:51:26.765Z,98462.94
2022-11-25T23:56:28.606Z,98467.13
